Time;durP1;ratioP1;P1;durP2;ratioP2;P2;SDS_P1;SDS_P2;PMS_P1;PMS_P2;Temp;Humidity;BMP_temperature;BMP_pressure;BME280_temperature;BME280_humidity;BME280_pressure;Samples;Min_cycle;Max_cycle;Signal;HPM_P1;HPM_P2
2021/05/05 00:00:26;;;;;;;;;;;23.60;36.30;;;;;;1577906;73;736;-70
2021/05/05 00:02:28;;;;;;;;;;;23.60;36.50;;;;;;1589336;73;743;-70
2021/05/05 00:04:30;;;;;;;;;;;23.70;36.60;;;;;;1576726;73;1923;-70
2021/05/05 00:06:32;;;;;;;;;;;23.60;36.40;;;;;;1583811;73;801;-70
2021/05/05 00:08:34;;;;;;;;;;;23.60;36.50;;;;;;1589500;73;714;-71
2021/05/05 00:10:36;;;;;;;;;;;23.60;36.40;;;;;;1584537;73;739;-71
2021/05/05 00:12:38;;;;;;;;;;;23.60;36.40;;;;;;1578332;73;1173;-71
2021/05/05 00:14:39;;;;;;;;;;;23.60;36.40;;;;;;1572948;73;798;-72
2021/05/05 00:16:41;;;;;;;;;;;23.60;36.30;;;;;;1589154;73;763;-71
2021/05/05 00:18:43;;;;;;;;;;;23.60;36.30;;;;;;1576207;73;796;-70
2021/05/05 00:20:45;;;;;;;;;;;23.60;36.30;;;;;;1575867;73;801;-70
2021/05/05 00:22:47;;;;;;;;;;;23.60;36.40;;;;;;1572707;73;1155;-69
2021/05/05 00:24:49;;;;;;;;;;;23.60;36.40;;;;;;1582686;73;1936;-70
2021/05/05 00:26:51;;;;;;;;;;;23.60;36.30;;;;;;1571241;73;777;-70
2021/05/05 00:28:53;;;;;;;;;;;23.60;36.30;;;;;;1578142;73;729;-70
2021/05/05 00:30:55;;;;;;;;;;;23.60;36.40;;;;;;1578884;73;792;-71
2021/05/05 00:32:57;;;;;;;;;;;23.60;36.30;;;;;;1565816;74;1129;-71
2021/05/05 00:34:58;;;;;;;;;;;23.50;36.40;;;;;;1567161;74;789;-70
2021/05/05 00:37:00;;;;;;;;;;;23.60;36.40;;;;;;1560421;74;728;-70
2021/05/05 00:39:03;;;;;;;;;;;23.60;36.30;;;;;;1563345;74;717;-69
2021/05/05 00:41:09;;;;;;;;;;;23.60;36.30;;;;;;1582073;73;726;-70
2021/05/05 00:43:11;;;;;;;;;;;23.50;36.40;;;;;;1572639;73;1119;-69
2021/05/05 00:45:13;;;;;;;;;;;23.60;36.40;;;;;;1576926;73;1930;-69
2021/05/05 00:47:15;;;;;;;;;;;23.60;36.40;;;;;;1586437;73;810;-72
2021/05/05 00:49:17;;;;;;;;;;;23.60;36.40;;;;;;1586667;73;715;-70
2021/05/05 00:51:19;;;;;;;;;;;23.60;36.50;;;;;;1576297;73;773;-71
2021/05/05 00:53:21;;;;;;;;;;;23.60;36.30;;;;;;1582288;73;1145;-70
2021/05/05 00:55:23;;;;;;;;;;;23.60;36.40;;;;;;1571268;73;778;-70
2021/05/05 00:57:25;;;;;;;;;;;23.60;36.40;;;;;;1594084;73;781;-71
2021/05/05 00:59:27;;;;;;;;;;;23.60;36.30;;;;;;1576101;73;994;-71
2021/05/05 01:01:29;;;;;;;;;;;23.60;36.40;;;;;;1569281;73;678;-71
2021/05/05 01:03:30;;;;;;;;;;;23.60;36.50;;;;;;1579947;73;1938;-72
2021/05/05 01:05:32;;;;;;;;;;;23.60;36.40;;;;;;1590435;73;828;-71
2021/05/05 01:07:34;;;;;;;;;;;23.60;36.50;;;;;;1573027;73;817;-73
2021/05/05 01:09:36;;;;;;;;;;;23.60;36.60;;;;;;1571272;73;772;-73
2021/05/05 01:11:38;;;;;;;;;;;23.60;36.60;;;;;;1575452;73;757;-73
2021/05/05 01:13:40;;;;;;;;;;;23.60;36.50;;;;;;1582536;73;1106;-73
2021/05/05 01:15:42;;;;;;;;;;;23.60;36.50;;;;;;1568658;73;827;-73
2021/05/05 01:17:44;;;;;;;;;;;23.60;36.50;;;;;;1574702;73;883;-74
2021/05/05 01:19:46;;;;;;;;;;;23.60;36.50;;;;;;1571657;73;723;-72
2021/05/05 01:21:48;;;;;;;;;;;23.60;36.50;;;;;;1575409;73;913;-74
2021/05/05 01:23:50;;;;;;;;;;;23.50;36.50;;;;;;1564397;74;1944;-72
2021/05/05 01:25:52;;;;;;;;;;;23.60;36.50;;;;;;1562146;74;716;-72
2021/05/05 01:27:54;;;;;;;;;;;23.60;36.50;;;;;;1579122;73;711;-74
2021/05/05 01:29:56;;;;;;;;;;;23.60;36.50;;;;;;1556909;74;834;-71
2021/05/05 01:31:58;;;;;;;;;;;23.60;36.50;;;;;;1574543;73;759;-71
2021/05/05 01:33:59;;;;;;;;;;;23.60;36.40;;;;;;1572454;73;1119;-72
2021/05/05 01:36:01;;;;;;;;;;;23.50;36.30;;;;;;1573479;73;746;-72
2021/05/05 01:38:03;;;;;;;;;;;23.50;36.20;;;;;;1571603;73;742;-72
2021/05/05 01:40:05;;;;;;;;;;;23.50;36.30;;;;;;1576515;73;717;-71
2021/05/05 01:42:07;;;;;;;;;;;23.50;36.30;;;;;;1572477;73;732;-71
2021/05/05 01:44:09;;;;;;;;;;;23.50;36.30;;;;;;1556278;74;1950;-71
2021/05/05 01:46:11;;;;;;;;;;;23.50;36.40;;;;;;1563192;74;680;-71
2021/05/05 01:48:15;;;;;;;;;;;23.50;36.30;;;;;;1576280;73;953;-74
2021/05/05 01:50:17;;;;;;;;;;;23.50;36.40;;;;;;1570924;73;670;-70
2021/05/05 01:52:19;;;;;;;;;;;23.50;36.30;;;;;;1586350;73;758;-71
2021/05/05 01:54:21;;;;;;;;;;;23.50;36.40;;;;;;1581621;72;3063;-66
2021/05/05 01:56:23;;;;;;;;;;;23.50;36.30;;;;;;1592459;74;785;-67
2021/05/05 01:58:24;;;;;;;;;;;23.50;36.50;;;;;;1595303;73;757;-67
2021/05/05 02:00:27;;;;;;;;;;;23.50;36.50;;;;;;1594424;73;800;-66
2021/05/05 02:02:29;;;;;;;;;;;23.50;36.50;;;;;;1595309;73;725;-67
2021/05/05 02:04:31;;;;;;;;;;;23.50;36.50;;;;;;1592170;73;1949;-67
2021/05/05 02:06:33;;;;;;;;;;;23.50;36.50;;;;;;1592307;73;1082;-68
2021/05/05 02:08:35;;;;;;;;;;;23.50;36.50;;;;;;1592179;74;760;-67
2021/05/05 02:10:37;;;;;;;;;;;23.50;36.60;;;;;;1589062;73;1287;-67
2021/05/05 02:12:39;;;;;;;;;;;23.50;36.40;;;;;;1598077;73;782;-69
2021/05/05 02:14:41;;;;;;;;;;;23.50;36.40;;;;;;1594109;73;1093;-67
2021/05/05 02:16:43;;;;;;;;;;;23.50;36.50;;;;;;1593624;73;802;-68
2021/05/05 02:18:45;;;;;;;;;;;23.50;36.50;;;;;;1593994;73;787;-67
2021/05/05 02:20:47;;;;;;;;;;;23.40;36.40;;;;;;1596376;73;712;-67
2021/05/05 02:22:49;;;;;;;;;;;23.40;36.50;;;;;;1592274;73;705;-66
2021/05/05 02:24:51;;;;;;;;;;;23.50;36.50;;;;;;1594804;73;1945;-66
2021/05/05 02:26:52;;;;;;;;;;;23.50;36.50;;;;;;1584827;73;789;-67
2021/05/05 02:28:54;;;;;;;;;;;23.40;36.30;;;;;;1594903;73;706;-66
2021/05/05 02:30:56;;;;;;;;;;;23.40;36.40;;;;;;1595362;74;712;-67
2021/05/05 02:32:58;;;;;;;;;;;23.40;36.30;;;;;;1592298;73;1100;-67
2021/05/05 02:35:00;;;;;;;;;;;23.40;36.30;;;;;;1586280;73;788;-68
2021/05/05 02:37:02;;;;;;;;;;;23.50;36.50;;;;;;1590875;73;726;-69
2021/05/05 02:39:05;;;;;;;;;;;23.40;36.30;;;;;;1593645;73;721;-68
2021/05/05 02:41:07;;;;;;;;;;;23.40;36.30;;;;;;1591964;73;785;-67
2021/05/05 02:43:09;;;;;;;;;;;23.50;36.30;;;;;;1590604;73;1169;-67
2021/05/05 02:45:11;;;;;;;;;;;23.40;36.20;;;;;;1593005;73;1933;-69
2021/05/05 02:47:12;;;;;;;;;;;23.50;36.30;;;;;;1597273;73;737;-67
2021/05/05 02:49:14;;;;;;;;;;;23.40;36.10;;;;;;1584759;73;777;-68
2021/05/05 02:51:16;;;;;;;;;;;23.40;36.20;;;;;;1595706;73;689;-68
2021/05/05 02:53:18;;;;;;;;;;;23.40;36.10;;;;;;1590498;73;1272;-69
2021/05/05 02:55:21;;;;;;;;;;;23.40;36.10;;;;;;1596660;72;762;-65
2021/05/05 02:57:22;;;;;;;;;;;23.40;36.20;;;;;;1596163;72;819;-68
2021/05/05 02:59:25;;;;;;;;;;;23.40;36.30;;;;;;1594673;73;794;-68
2021/05/05 03:01:27;;;;;;;;;;;23.30;36.50;;;;;;1589690;72;781;-68
2021/05/05 03:03:28;;;;;;;;;;;23.20;36.60;;;;;;1592205;73;1135;-67
2021/05/05 03:05:30;;;;;;;;;;;23.20;36.70;;;;;;1595556;72;1935;-67
2021/05/05 03:07:32;;;;;;;;;;;23.20;36.80;;;;;;1593768;73;752;-67
2021/05/05 03:09:34;;;;;;;;;;;23.20;37.00;;;;;;1597867;72;805;-69
2021/05/05 03:11:36;;;;;;;;;;;23.10;37.00;;;;;;1596510;72;671;-69
2021/05/05 03:13:38;;;;;;;;;;;23.20;37.10;;;;;;1587890;73;1206;-66
2021/05/05 03:15:40;;;;;;;;;;;23.10;37.10;;;;;;1595076;73;778;-66
2021/05/05 03:17:42;;;;;;;;;;;23.10;37.30;;;;;;1597031;72;716;-67
2021/05/05 03:19:44;;;;;;;;;;;23.10;37.40;;;;;;1593014;72;690;-68
2021/05/05 03:21:46;;;;;;;;;;;23.10;37.30;;;;;;1594415;72;725;-69
2021/05/05 03:23:48;;;;;;;;;;;23.10;37.40;;;;;;1594116;72;1143;-67
2021/05/05 03:25:50;;;;;;;;;;;23.00;37.20;;;;;;1591780;73;1944;-66
2021/05/05 03:27:52;;;;;;;;;;;23.10;37.40;;;;;;1591245;72;705;-68
2021/05/05 03:29:53;;;;;;;;;;;23.00;37.30;;;;;;1598899;72;737;-68
2021/05/05 03:31:57;;;;;;;;;;;23.10;37.80;;;;;;1593918;73;763;-69
2021/05/05 03:33:59;;;;;;;;;;;23.00;37.70;;;;;;1588911;73;1132;-68
2021/05/05 03:36:01;;;;;;;;;;;23.00;37.60;;;;;;1595392;73;710;-68
2021/05/05 03:38:03;;;;;;;;;;;23.00;37.50;;;;;;1597556;72;735;-67
2021/05/05 03:40:07;;;;;;;;;;;23.10;37.60;;;;;;1596259;72;704;-68
2021/05/05 03:42:09;;;;;;;;;;;23.10;37.60;;;;;;1596111;72;718;-70
2021/05/05 03:44:11;;;;;;;;;;;23.10;37.40;;;;;;1600980;72;1145;-69
2021/05/05 03:46:13;;;;;;;;;;;23.10;37.30;;;;;;1595249;72;1971;-69
2021/05/05 03:48:15;;;;;;;;;;;23.10;37.30;;;;;;1600532;72;688;-68
2021/05/05 03:50:16;;;;;;;;;;;23.10;37.30;;;;;;1593618;72;687;-68
2021/05/05 03:52:18;;;;;;;;;;;23.20;37.30;;;;;;1604282;72;808;-68
2021/05/05 03:54:20;;;;;;;;;;;23.20;37.20;;;;;;1589784;73;1181;-65
2021/05/05 03:56:22;;;;;;;;;;;23.20;37.20;;;;;;1599923;72;699;-67
2021/05/05 03:58:24;;;;;;;;;;;23.20;37.10;;;;;;1592325;73;725;-67
2021/05/05 04:00:26;;;;;;;;;;;23.30;37.10;;;;;;1594468;72;711;-68
2021/05/05 04:02:28;;;;;;;;;;;23.20;37.00;;;;;;1596617;72;783;-68
2021/05/05 04:04:30;;;;;;;;;;;23.20;36.90;;;;;;1596518;72;1199;-67
2021/05/05 04:06:32;;;;;;;;;;;23.20;37.00;;;;;;1592924;72;1933;-68
2021/05/05 04:08:34;;;;;;;;;;;23.20;37.00;;;;;;1595626;72;627;-67
2021/05/05 04:10:35;;;;;;;;;;;23.30;37.10;;;;;;1599503;72;752;-66
2021/05/05 04:12:38;;;;;;;;;;;23.20;37.00;;;;;;1602303;72;783;-67
2021/05/05 04:14:41;;;;;;;;;;;23.20;37.00;;;;;;1598145;72;1140;-68
2021/05/05 04:16:43;;;;;;;;;;;23.30;36.90;;;;;;1593336;73;649;-67
2021/05/05 04:18:45;;;;;;;;;;;23.30;36.80;;;;;;1603959;72;794;-67
2021/05/05 04:20:47;;;;;;;;;;;23.40;36.70;;;;;;1594866;73;718;-67
2021/05/05 04:22:49;;;;;;;;;;;23.40;36.50;;;;;;1598678;72;723;-66
2021/05/05 04:24:51;;;;;;;;;;;23.40;36.40;;;;;;1591233;73;1941;-66
2021/05/05 04:26:53;;;;;;;;;;;23.50;36.40;;;;;;1595315;73;663;-66
2021/05/05 04:28:55;;;;;;;;;;;23.50;36.20;;;;;;1600289;72;726;-68
2021/05/05 04:30:57;;;;;;;;;;;23.50;36.30;;;;;;1599533;72;828;-69
2021/05/05 04:32:59;;;;;;;;;;;23.40;36.40;;;;;;1595032;72;1148;-67
2021/05/05 04:35:00;;;;;;;;;;;23.40;36.50;;;;;;1597961;72;764;-68
2021/05/05 04:37:05;;;;;;;;;;;23.20;36.50;;;;;;1596905;72;716;-69
2021/05/05 04:39:06;;;;;;;;;;;23.20;36.70;;;;;;1596939;72;1593;-68
2021/05/05 04:41:08;;;;;;;;;;;23.20;36.60;;;;;;1594893;72;712;-67
2021/05/05 04:43:10;;;;;;;;;;;23.20;36.80;;;;;;1602116;72;1166;-68
2021/05/05 04:45:12;;;;;;;;;;;23.20;36.60;;;;;;1597144;72;1929;-69
2021/05/05 04:47:13;;;;;;;;;;;23.20;36.50;;;;;;1589543;72;766;-67
2021/05/05 04:49:15;;;;;;;;;;;23.20;36.20;;;;;;1603047;73;722;-66
2021/05/05 04:51:17;;;;;;;;;;;23.30;36.10;;;;;;1600489;72;774;-70
2021/05/05 04:53:19;;;;;;;;;;;23.30;36.00;;;;;;1599307;72;1195;-69
2021/05/05 04:55:21;;;;;;;;;;;23.30;36.00;;;;;;1599274;72;793;-68
2021/05/05 04:57:23;;;;;;;;;;;23.30;36.00;;;;;;1592110;72;700;-70
2021/05/05 04:59:25;;;;;;;;;;;23.40;35.90;;;;;;1592124;73;766;-68
2021/05/05 05:01:27;;;;;;;;;;;23.30;35.90;;;;;;1598403;72;752;-68
2021/05/05 05:03:29;;;;;;;;;;;23.30;35.90;;;;;;1598812;72;1148;-69
2021/05/05 05:05:31;;;;;;;;;;;23.20;35.80;;;;;;1594514;72;1937;-68
2021/05/05 05:07:32;;;;;;;;;;;23.20;36.00;;;;;;1596538;73;710;-67
2021/05/05 05:09:34;;;;;;;;;;;23.10;36.20;;;;;;1597059;72;795;-68
2021/05/05 05:11:36;;;;;;;;;;;23.10;36.30;;;;;;1596909;72;759;-67
2021/05/05 05:13:39;;;;;;;;;;;23.10;36.50;;;;;;1593327;72;1159;-68
2021/05/05 05:15:40;;;;;;;;;;;23.10;36.50;;;;;;1596332;72;737;-67
2021/05/05 05:17:42;;;;;;;;;;;23.10;36.60;;;;;;1596805;72;690;-67
2021/05/05 05:19:44;;;;;;;;;;;23.10;36.60;;;;;;1593292;72;717;-68
2021/05/05 05:21:46;;;;;;;;;;;23.10;36.70;;;;;;1598058;73;1001;-68
2021/05/05 05:23:48;;;;;;;;;;;23.10;36.50;;;;;;1588893;72;1183;-68
2021/05/05 05:25:50;;;;;;;;;;;23.00;36.60;;;;;;1594608;73;1949;-67
2021/05/05 05:27:52;;;;;;;;;;;23.00;36.40;;;;;;1594287;72;790;-68
2021/05/05 05:29:54;;;;;;;;;;;23.00;36.40;;;;;;1598387;72;720;-69
2021/05/05 05:31:56;;;;;;;;;;;23.00;36.50;;;;;;1588054;72;736;-68
2021/05/05 05:33:58;;;;;;;;;;;23.00;36.50;;;;;;1594384;72;1141;-67
2021/05/05 05:35:59;;;;;;;;;;;23.00;36.50;;;;;;1598028;73;782;-67
2021/05/05 05:38:01;;;;;;;;;;;23.10;36.50;;;;;;1593222;73;772;-65
2021/05/05 05:40:04;;;;;;;;;;;23.10;36.50;;;;;;1592717;72;692;-64
2021/05/05 05:42:06;;;;;;;;;;;23.10;36.60;;;;;;1588397;73;820;-66
2021/05/05 05:44:08;;;;;;;;;;;23.10;36.70;;;;;;1599206;72;1130;-68
2021/05/05 05:46:11;;;;;;;;;;;23.10;36.90;;;;;;1591232;73;1931;-67
2021/05/05 05:48:13;;;;;;;;;;;23.10;36.80;;;;;;1595506;72;610;-67
2021/05/05 05:50:15;;;;;;;;;;;23.10;36.40;;;;;;1593792;73;723;-67
2021/05/05 05:52:17;;;;;;;;;;;23.20;36.30;;;;;;1597976;72;799;-67
2021/05/05 05:54:19;;;;;;;;;;;23.30;36.10;;;;;;1587845;72;1193;-67
2021/05/05 05:56:21;;;;;;;;;;;23.40;35.90;;;;;;1604686;72;779;-66
2021/05/05 05:58:22;;;;;;;;;;;23.40;35.90;;;;;;1600737;72;699;-67
2021/05/05 06:00:25;;;;;;;;;;;23.40;36.00;;;;;;1596325;72;661;-65
2021/05/05 06:02:27;;;;;;;;;;;23.40;36.10;;;;;;1598458;72;819;-64
2021/05/05 06:04:28;;;;;;;;;;;23.40;36.00;;;;;;1597816;72;1061;-64
2021/05/05 06:06:30;;;;;;;;;;;23.30;35.70;;;;;;1601884;72;1905;-66
2021/05/05 06:08:33;;;;;;;;;;;23.20;35.80;;;;;;1597609;72;711;-64
2021/05/05 06:10:35;;;;;;;;;;;23.40;35.90;;;;;;1596863;72;689;-66
2021/05/05 06:12:37;;;;;;;;;;;23.50;35.60;;;;;;1582654;72;767;-66
2021/05/05 06:14:38;;;;;;;;;;;23.60;35.40;;;;;;1596821;72;1139;-66
2021/05/05 06:16:40;;;;;;;;;;;23.50;35.20;;;;;;1601904;72;666;-66
2021/05/05 06:18:42;;;;;;;;;;;23.60;34.90;;;;;;1593755;72;662;-66
2021/05/05 06:20:44;;;;;;;;;;;23.60;34.90;;;;;;1597899;72;763;-66
2021/05/05 06:22:47;;;;;;;;;;;23.60;34.80;;;;;;1601801;72;676;-66
2021/05/05 06:24:49;;;;;;;;;;;23.60;34.70;;;;;;1592543;72;1127;-65
2021/05/05 06:26:51;;;;;;;;;;;23.50;34.70;;;;;;1597442;72;1921;-69
2021/05/05 06:28:53;;;;;;;;;;;23.50;34.60;;;;;;1601242;72;738;-67
2021/05/05 06:30:57;;;;;;;;;;;23.60;34.40;;;;;;1599475;72;815;-66
2021/05/05 06:32:58;;;;;;;;;;;23.60;34.40;;;;;;1600881;72;1563;-65
2021/05/05 06:35:00;;;;;;;;;;;23.60;34.40;;;;;;1596739;72;727;-68
2021/05/05 06:37:03;;;;;;;;;;;23.60;34.40;;;;;;1608698;72;738;-68
2021/05/05 06:39:11;;;;;;;;;;;23.60;34.30;;;;;;1590892;72;746;-66
2021/05/05 06:41:08;;;;;;;;;;;23.60;34.30;;;;;;1596905;73;986;-66
2021/05/05 06:43:10;;;;;;;;;;;23.50;34.30;;;;;;1599568;72;1096;-66
2021/05/05 06:45:12;;;;;;;;;;;23.60;34.30;;;;;;1589888;72;776;-66
2021/05/05 06:47:14;;;;;;;;;;;23.60;34.30;;;;;;1596694;72;1933;-64
2021/05/05 06:49:16;;;;;;;;;;;23.60;34.20;;;;;;1599743;72;811;-66
2021/05/05 06:51:18;;;;;;;;;;;23.60;34.20;;;;;;1595199;73;747;-66
2021/05/05 06:53:20;;;;;;;;;;;23.60;34.20;;;;;;1602985;72;1221;-67
2021/05/05 06:55:22;;;;;;;;;;;23.60;34.20;;;;;;1597194;72;763;-67
2021/05/05 06:57:23;;;;;;;;;;;23.60;34.10;;;;;;1594858;73;782;-66
2021/05/05 06:59:25;;;;;;;;;;;23.50;34.20;;;;;;1592352;72;714;-68
2021/05/05 07:01:27;;;;;;;;;;;23.50;34.20;;;;;;1594119;73;795;-66
2021/05/05 07:03:29;;;;;;;;;;;23.50;34.20;;;;;;1597543;72;1163;-68
2021/05/05 07:05:31;;;;;;;;;;;23.50;34.20;;;;;;1591015;73;759;-70
2021/05/05 07:07:33;;;;;;;;;;;23.40;34.30;;;;;;1597213;72;1950;-69
2021/05/05 07:09:35;;;;;;;;;;;23.50;33.20;;;;;;1598388;72;664;-71
2021/05/05 07:11:38;;;;;;;;;;;23.40;33.10;;;;;;1595616;72;661;-75
2021/05/05 07:13:40;;;;;;;;;;;23.40;33.10;;;;;;1594333;72;1105;-69
2021/05/05 07:15:42;;;;;;;;;;;23.30;32.80;;;;;;1595590;72;790;-69
2021/05/05 07:17:44;;;;;;;;;;;23.30;32.90;;;;;;1593255;72;761;-69
2021/05/05 07:19:46;;;;;;;;;;;23.20;32.40;;;;;;1596794;73;741;-69
2021/05/05 07:21:48;;;;;;;;;;;23.20;32.60;;;;;;1598478;72;705;-68
2021/05/05 07:23:50;;;;;;;;;;;23.20;32.80;;;;;;1596935;72;1145;-72
2021/05/05 07:25:52;;;;;;;;;;;23.20;32.90;;;;;;1594758;73;1919;-70
2021/05/05 07:27:54;;;;;;;;;;;23.10;32.70;;;;;;1599394;72;753;-70
2021/05/05 07:29:56;;;;;;;;;;;23.10;32.50;;;;;;1592052;73;723;-73
2021/05/05 07:31:58;;;;;;;;;;;23.10;32.30;;;;;;1598170;73;681;-70
2021/05/05 07:34:00;;;;;;;;;;;23.00;32.20;;;;;;1592893;73;1217;-70
2021/05/05 07:36:10;;;;;;;;;;;23.00;32.30;;;;;;1590532;73;738;-71
2021/05/05 07:49:00;;;;;;;;;;;22.90;32.20;;;;;;1590147;73;863;-70
2021/05/05 07:51:01;;;;;;;;;;;22.80;32.10;;;;;;1587388;73;1631;-73
2021/05/05 07:53:03;;;;;;;;;;;22.80;32.00;;;;;;1589071;73;1176;-72
2021/05/05 07:55:05;;;;;;;;;;;22.80;32.00;;;;;;1591635;73;3115;-63
2021/05/05 07:57:07;;;;;;;;;;;22.80;32.00;;;;;;1578877;74;740;-66
2021/05/05 07:59:11;;;;;;;;;;;22.80;32.10;;;;;;1580048;74;757;-62
2021/05/05 08:01:13;;;;;;;;;;;22.80;32.10;;;;;;1583259;74;676;-63
2021/05/05 08:03:15;;;;;;;;;;;22.80;32.10;;;;;;1581161;74;718;-65
2021/05/05 08:05:17;;;;;;;;;;;22.80;32.20;;;;;;1574523;74;1220;-64
2021/05/05 08:07:19;;;;;;;;;;;22.80;32.20;;;;;;1567248;74;1954;-63
2021/05/05 08:09:22;;;;;;;;;;;22.80;32.10;;;;;;1571526;74;776;-64
2021/05/05 08:11:24;;;;;;;;;;;22.80;32.30;;;;;;1565623;74;817;-63
2021/05/05 08:13:26;;;;;;;;;;;22.70;32.30;;;;;;1570757;74;878;-64
2021/05/05 08:15:31;;;;;;;;;;;22.70;32.20;;;;;;1570455;74;787;-63
2021/05/05 08:17:32;;;;;;;;;;;22.60;32.30;;;;;;1571974;74;1551;-64
2021/05/05 08:19:34;;;;;;;;;;;22.60;32.30;;;;;;1569663;74;741;-63
2021/05/05 08:21:36;;;;;;;;;;;22.60;32.40;;;;;;1569366;74;773;-63
2021/05/05 08:23:38;;;;;;;;;;;22.60;32.30;;;;;;1570520;74;1107;-63
2021/05/05 08:25:40;;;;;;;;;;;22.60;32.40;;;;;;1576521;74;722;-63
2021/05/05 08:27:42;;;;;;;;;;;22.60;32.40;;;;;;1567341;74;1939;-64
2021/05/05 08:29:44;;;;;;;;;;;22.50;32.40;;;;;;1575496;74;791;-64
2021/05/05 08:31:46;;;;;;;;;;;22.50;32.50;;;;;;1573326;74;878;-64
2021/05/05 08:33:48;;;;;;;;;;;22.50;32.50;;;;;;1571310;74;1128;-63
2021/05/05 08:35:50;;;;;;;;;;;22.50;32.60;;;;;;1557972;75;810;-63
2021/05/05 08:37:52;;;;;;;;;;;22.50;32.50;;;;;;1557681;75;688;-62
2021/05/05 08:39:54;;;;;;;;;;;22.40;32.40;;;;;;1564961;75;723;-63
2021/05/05 08:41:57;;;;;;;;;;;22.40;32.40;;;;;;1560031;75;812;-63
2021/05/05 08:43:59;;;;;;;;;;;22.40;32.50;;;;;;1553930;75;1108;-63
2021/05/05 08:46:01;;;;;;;;;;;22.40;32.50;;;;;;1536804;76;1386;-64
2021/05/05 08:48:05;;;;;;;;;;;22.50;32.60;;;;;;1559594;75;1942;-63
2021/05/05 08:50:07;;;;;;;;;;;22.40;32.60;;;;;;1557228;75;742;-66
2021/05/05 08:52:09;;;;;;;;;;;22.40;32.50;;;;;;1557975;75;755;-64
2021/05/05 08:54:11;;;;;;;;;;;22.40;32.60;;;;;;1559907;75;1196;-63
2021/05/05 08:56:13;;;;;;;;;;;22.40;32.50;;;;;;1559519;75;849;-63
2021/05/05 08:58:14;;;;;;;;;;;22.50;32.60;;;;;;1561810;75;815;-66
2021/05/05 09:00:17;;;;;;;;;;;22.40;32.40;;;;;;1561637;75;777;-63
2021/05/05 09:02:20;;;;;;;;;;;22.40;32.40;;;;;;1556437;75;770;-65
2021/05/05 09:04:22;;;;;;;;;;;22.40;32.30;;;;;;1552865;75;1183;-63
2021/05/05 09:06:42;;;;;;;;;;;22.30;32.40;;;;;;1559551;75;1923;-67
2021/05/05 09:08:47;;;;;;;;;;;22.30;32.40;;;;;;1557534;75;806;-65
2021/05/05 09:11:00;;;;;;;;;;;22.30;32.30;;;;;;1553897;75;804;-63
2021/05/05 09:13:02;;;;;;;;;;;22.30;32.30;;;;;;1558408;75;684;-65
2021/05/05 09:15:08;;;;;;;;;;;22.30;32.40;;;;;;1561957;75;1134;-63
2021/05/05 09:17:11;;;;;;;;;;;22.20;32.30;;;;;;1561994;75;723;-63
2021/05/05 09:19:13;;;;;;;;;;;22.20;32.30;;;;;;1552056;75;1851;-63
2021/05/05 09:21:15;;;;;;;;;;;22.20;32.40;;;;;;1563258;75;721;-68
2021/05/05 09:23:17;;;;;;;;;;;22.20;32.30;;;;;;1556712;75;808;-66
2021/05/05 09:25:20;;;;;;;;;;;22.20;32.30;;;;;;1542952;76;1233;-64
2021/05/05 09:27:22;;;;;;;;;;;22.20;32.30;;;;;;1561238;75;1924;-63
2021/05/05 09:29:42;;;;;;;;;;;22.20;32.50;;;;;;1558017;75;711;-63
2021/05/05 09:31:44;;;;;;;;;;;22.10;32.40;;;;;;1557384;75;787;-63
2021/05/05 09:33:48;;;;;;;;;;;22.10;32.40;;;;;;1550353;75;1144;-64
2021/05/05 09:35:51;;;;;;;;;;;22.20;32.40;;;;;;1556940;75;819;-62
2021/05/05 09:37:57;;;;;;;;;;;22.00;32.40;;;;;;1558163;75;1828;-63
2021/05/05 09:40:00;;;;;;;;;;;22.10;32.50;;;;;;1559789;75;747;-63
2021/05/05 09:42:02;;;;;;;;;;;22.00;32.80;;;;;;1558803;75;767;-66
2021/05/05 09:44:05;;;;;;;;;;;22.10;33.40;;;;;;1555739;75;1155;-66
2021/05/05 09:46:08;;;;;;;;;;;22.00;33.60;;;;;;1556336;75;834;-64
2021/05/05 09:48:10;;;;;;;;;;;22.00;33.90;;;;;;1559023;75;1958;-64
2021/05/05 09:50:31;;;;;;;;;;;22.00;33.90;;;;;;1561301;75;810;-64
2021/05/05 09:52:32;;;;;;;;;;;22.00;33.90;;;;;;1553111;75;737;-64
2021/05/05 09:54:35;;;;;;;;;;;22.00;33.90;;;;;;1559476;75;1380;-63
2021/05/05 09:56:37;;;;;;;;;;;22.00;33.90;;;;;;1560545;75;770;-63
2021/05/05 09:58:40;;;;;;;;;;;22.00;34.00;;;;;;1557702;75;772;-63
2021/05/05 10:00:42;;;;;;;;;;;21.90;34.10;;;;;;1562933;75;785;-63
2021/05/05 10:02:45;;;;;;;;;;;21.90;33.90;;;;;;1553589;75;743;-62
2021/05/05 10:05:00;;;;;;;;;;;22.00;34.00;;;;;;1558274;75;1159;-61
2021/05/05 10:07:04;;;;;;;;;;;22.00;34.10;;;;;;1562120;75;1907;-62
2021/05/05 10:09:06;;;;;;;;;;;22.00;34.10;;;;;;1555526;75;759;-65
2021/05/05 10:11:08;;;;;;;;;;;21.90;34.10;;;;;;1551163;75;710;-63
2021/05/05 10:13:11;;;;;;;;;;;21.90;34.40;;;;;;1564334;75;759;-63
2021/05/05 10:15:15;;;;;;;;;;;21.90;33.90;;;;;;1556716;75;1122;-63
2021/05/05 10:17:17;;;;;;;;;;;21.80;33.50;;;;;;1561044;75;789;-62
2021/05/05 10:19:21;;;;;;;;;;;21.80;33.80;;;;;;1563581;75;679;-65
2021/05/05 10:21:24;;;;;;;;;;;21.80;33.90;;;;;;1565860;75;761;-62
2021/05/05 10:23:25;;;;;;;;;;;21.70;33.70;;;;;;1560509;75;769;-61
2021/05/05 10:25:27;;;;;;;;;;;21.70;33.70;;;;;;1560396;75;1086;-62
2021/05/05 10:27:29;;;;;;;;;;;21.60;33.70;;;;;;1561023;75;1938;-61
2021/05/05 10:29:35;;;;;;;;;;;21.60;33.60;;;;;;1558826;75;747;-61
2021/05/05 10:31:36;;;;;;;;;;;21.60;33.50;;;;;;1562695;75;1774;-64
2021/05/05 10:33:41;;;;;;;;;;;21.50;33.60;;;;;;1561174;75;1100;-61
2021/05/05 10:35:41;;;;;;;;;;;21.50;33.60;;;;;;1555088;75;1837;-63
2021/05/05 10:38:00;;;;;;;;;;;21.50;33.40;;;;;;1561122;75;817;-63
2021/05/05 10:39:59;;;;;;;;;;;21.50;33.40;;;;;;1557870;75;1614;-62
2021/05/05 10:42:03;;;;;;;;;;;21.50;33.40;;;;;;1572084;74;1148;-64
2021/05/05 10:44:05;;;;;;;;;;;21.40;32.90;;;;;;1561114;75;1188;-61
2021/05/05 10:46:08;;;;;;;;;;;21.40;32.80;;;;;;1550007;75;720;-61
2021/05/05 10:48:11;;;;;;;;;;;21.30;32.60;;;;;;1552498;75;1928;-62
2021/05/05 10:50:14;;;;;;;;;;;21.30;32.70;;;;;;1568709;75;725;-61
2021/05/05 10:52:15;;;;;;;;;;;21.40;32.60;;;;;;1555550;75;810;-61
2021/05/05 10:54:18;;;;;;;;;;;21.30;32.60;;;;;;1567077;75;1202;-62
2021/05/05 10:56:32;;;;;;;;;;;21.30;32.50;;;;;;1627315;72;682;-56
2021/05/05 10:58:30;;;;;;;;;;;21.20;32.70;;;;;;1613525;72;1627;-57
2021/05/05 11:00:46;;;;;;;;;;;21.20;32.50;;;;;;1589805;73;1119;-56
2021/05/05 11:02:48;;;;;;;;;;;21.10;32.60;;;;;;1599361;73;795;-56
2021/05/05 11:05:06;;;;;;;;;;;21.10;32.60;;;;;;1591398;73;683;-56
2021/05/05 11:07:08;;;;;;;;;;;21.10;32.60;;;;;;1594341;73;615;-56
2021/05/05 11:09:15;;;;;;;;;;;21.00;32.40;;;;;;1601722;73;731;-56
2021/05/05 11:11:36;;;;;;;;;;;21.00;32.70;;;;;;1577295;73;709;-56
2021/05/05 11:13:38;;;;;;;;;;;21.10;32.60;;;;;;1597022;73;730;-53
2021/05/05 11:15:45;;;;;;;;;;;21.10;32.80;;;;;;1603923;73;1935;-54
2021/05/05 11:17:46;;;;;;;;;;;21.10;32.60;;;;;;1586058;73;709;-56
2021/05/05 11:19:49;;;;;;;;;;;21.00;32.50;;;;;;1599290;73;1155;-57
2021/05/05 11:21:51;;;;;;;;;;;21.00;32.60;;;;;;1591773;73;849;-56
2021/05/05 11:23:53;;;;;;;;;;;21.10;32.80;;;;;;1589986;73;891;-56
2021/05/05 11:25:59;;;;;;;;;;;21.10;32.70;;;;;;1590465;73;672;-56
2021/05/05 11:28:01;;;;;;;;;;;21.10;32.80;;;;;;1558917;74;1068;-56
2021/05/05 11:30:03;;;;;;;;;;;21.20;32.90;;;;;;1592536;73;1167;-56
2021/05/05 11:32:06;;;;;;;;;;;21.20;32.90;;;;;;1556380;75;1117;-56
2021/05/05 11:34:07;;;;;;;;;;;21.30;32.80;;;;;;1589300;73;711;-56
2021/05/05 11:36:16;;;;;;;;;;;21.20;32.60;;;;;;1592662;73;1929;-56
2021/05/05 11:38:19;;;;;;;;;;;21.20;32.40;;;;;;1590852;73;730;-56
2021/05/05 11:40:21;;;;;;;;;;;21.20;32.60;;;;;;1589261;74;1163;-53
2021/05/05 11:42:23;;;;;;;;;;;21.20;32.80;;;;;;1595036;73;713;-56
2021/05/05 11:44:44;;;;;;;;;;;21.20;32.90;;;;;;1585497;73;716;-53
2021/05/05 11:46:47;;;;;;;;;;;21.20;32.80;;;;;;1586068;73;780;-56
2021/05/05 11:48:49;;;;;;;;;;;21.20;33.10;;;;;;1581630;73;2005;-56
2021/05/05 11:50:51;;;;;;;;;;;21.20;33.10;;;;;;1590672;73;1179;-56
2021/05/05 11:52:54;;;;;;;;;;;21.20;33.00;;;;;;1589514;74;727;-56
2021/05/05 11:55:00;;;;;;;;;;;21.20;32.90;;;;;;1589442;73;1914;-56
2021/05/05 11:57:02;;;;;;;;;;;21.20;33.10;;;;;;1584477;74;906;-56
2021/05/05 11:59:04;;;;;;;;;;;21.30;33.40;;;;;;1574923;73;807;-54
2021/05/05 12:01:06;;;;;;;;;;;21.20;33.20;;;;;;1583434;73;1068;-54
2021/05/05 12:03:09;;;;;;;;;;;21.20;33.20;;;;;;1578771;73;771;-55
2021/05/05 12:05:13;;;;;;;;;;;21.30;33.40;;;;;;1585927;73;704;-57
2021/05/05 12:07:19;;;;;;;;;;;21.20;33.50;;;;;;1587831;73;2094;-53
2021/05/05 12:09:21;;;;;;;;;;;21.20;33.60;;;;;;1577552;73;1162;-57
2021/05/05 12:11:23;;;;;;;;;;;21.30;33.60;;;;;;1602013;73;770;-53
2021/05/05 12:13:29;;;;;;;;;;;21.30;33.50;;;;;;1589128;73;866;-55
2021/05/05 12:15:31;;;;;;;;;;;21.30;33.50;;;;;;1584414;73;1903;-56
2021/05/05 12:17:52;;;;;;;;;;;21.30;33.50;;;;;;1584486;74;749;-53
2021/05/05 12:19:37;;;;;;;;;;;21.30;33.70;;;;;;1567460;74;1743;-54
2021/05/05 12:21:39;;;;;;;;;;;21.40;33.80;;;;;;1575496;74;776;-56